createdAt,value
2023-03-26T00:00:22.658Z,239.52
2023-03-26T00:04:22.222Z,239.13
2023-03-26T00:08:22.912Z,238.67
2023-03-26T00:12:22.310Z,240.14
2023-03-26T00:16:22.507Z,239.65
2023-03-26T00:20:22.361Z,239.06
2023-03-26T00:24:22.708Z,239.73
2023-03-26T00:28:22.558Z,239.88
2023-03-26T00:32:22.523Z,238.95
2023-03-26T00:36:22.737Z,239.18
2023-03-26T00:40:22.731Z,239.46
2023-03-26T00:44:22.760Z,238.41
2023-03-26T00:48:31.357Z,237.85
2023-03-26T00:52:23.812Z,238.52
2023-03-26T00:56:22.837Z,239.16
2023-03-26T01:00:22.653Z,239.02
2023-03-26T01:04:22.790Z,238.21
2023-03-26T01:08:22.931Z,239.17
2023-03-26T01:12:22.741Z,237.99
2023-03-26T01:16:22.808Z,237.43
2023-03-26T01:20:23.003Z,239.11
2023-03-26T01:24:22.972Z,238.96
2023-03-26T01:28:23.141Z,239.04
2023-03-26T01:32:23.219Z,238.04
2023-03-26T01:36:23.492Z,237.26
2023-03-26T01:40:24.370Z,237.51
2023-03-26T01:44:23.534Z,237.39
2023-03-26T01:48:23.986Z,237.26
2023-03-26T01:52:23.900Z,236.95
2023-03-26T01:56:24.001Z,236.53
2023-03-26T02:00:24.075Z,237.32
2023-03-26T02:04:24.643Z,236.22
2023-03-26T02:08:24.422Z,236.96
2023-03-26T02:12:24.900Z,237.87
2023-03-26T02:16:24.899Z,235.29
2023-03-26T02:20:24.932Z,235.59
2023-03-26T02:24:25.167Z,235.50
2023-03-26T02:28:25.313Z,234.92
2023-03-26T02:32:27.334Z,236.08
2023-03-26T02:36:25.550Z,235.00
2023-03-26T02:40:25.429Z,236.90
2023-03-26T02:44:25.455Z,234.57
2023-03-26T02:48:25.331Z,235.27
2023-03-26T02:52:25.570Z,235.12
2023-03-26T02:56:25.471Z,235.47
2023-03-26T03:00:25.618Z,235.19
2023-03-26T03:04:25.330Z,235.13
2023-03-26T03:08:25.406Z,235.20
2023-03-26T03:12:25.602Z,236.11
2023-03-26T03:16:25.823Z,235.56
2023-03-26T03:20:25.943Z,233.78
2023-03-26T03:24:26.243Z,235.86
2023-03-26T03:28:26.367Z,233.40
2023-03-26T03:32:26.633Z,235.36
2023-03-26T03:36:26.835Z,234.29
2023-03-26T03:40:26.889Z,236.04
2023-03-26T03:44:26.708Z,234.19
2023-03-26T03:48:27.215Z,234.11
2023-03-26T03:52:26.703Z,235.17
2023-03-26T03:56:26.692Z,234.30
2023-03-26T04:00:26.633Z,234.41
2023-03-26T04:04:26.605Z,233.38
2023-03-26T04:08:26.598Z,234.49
2023-03-26T04:12:26.606Z,234.67
2023-03-26T04:16:26.631Z,235.41
2023-03-26T04:20:26.652Z,234.29
2023-03-26T04:24:26.556Z,232.92
2023-03-26T04:28:26.507Z,235.18
2023-03-26T04:32:26.753Z,235.55
2023-03-26T04:36:26.412Z,233.49
2023-03-26T04:40:26.390Z,234.79
2023-03-26T04:44:26.410Z,235.25
2023-03-26T04:48:26.330Z,234.17
2023-03-26T04:52:26.263Z,234.07
2023-03-26T04:56:26.246Z,235.36
2023-03-26T05:00:26.216Z,235.05
2023-03-26T05:04:26.321Z,235.87
2023-03-26T05:08:26.450Z,234.44
2023-03-26T05:12:26.590Z,235.05
2023-03-26T05:16:26.709Z,232.75
2023-03-26T05:20:27.481Z,235.18
2023-03-26T05:24:26.778Z,234.84
2023-03-26T05:28:26.891Z,235.16
2023-03-26T05:32:26.963Z,234.63
2023-03-26T05:36:27.584Z,234.47
2023-03-26T05:40:26.942Z,234.61
2023-03-26T05:44:26.967Z,234.94
2023-03-26T05:48:27.121Z,235.87
2023-03-26T05:52:27.807Z,235.70
2023-03-26T05:56:27.324Z,234.36
2023-03-26T06:00:27.465Z,236.48
2023-03-26T06:04:27.487Z,234.50
2023-03-26T06:08:27.566Z,233.86
2023-03-26T06:12:27.832Z,235.66
2023-03-26T06:16:28.360Z,235.95
2023-03-26T06:20:28.096Z,236.46
2023-03-26T06:24:28.443Z,236.13
2023-03-26T06:28:28.496Z,233.78
2023-03-26T06:32:28.513Z,238.07
2023-03-26T06:36:28.488Z,237.58
2023-03-26T06:40:28.436Z,238.99
2023-03-26T06:44:28.346Z,237.87
2023-03-26T06:48:28.293Z,238.30
2023-03-26T06:52:28.316Z,237.28
2023-03-26T06:56:28.219Z,240.38
2023-03-26T07:00:28.220Z,236.26
2023-03-26T07:04:28.229Z,240.80
2023-03-26T07:08:28.351Z,240.33
2023-03-26T07:12:28.236Z,241.62
2023-03-26T07:16:28.227Z,239.10
2023-03-26T07:20:28.179Z,239.48
2023-03-26T07:24:28.130Z,240.71
2023-03-26T07:28:28.089Z,241.85
2023-03-26T07:32:28.067Z,240.85
2023-03-26T07:36:28.049Z,241.21
2023-03-26T07:40:27.975Z,242.44
2023-03-26T07:44:28.006Z,240.72
2023-03-26T07:48:27.931Z,240.45
2023-03-26T07:52:27.885Z,239.86
2023-03-26T07:56:27.848Z,244.63
2023-03-26T08:00:27.793Z,242.39
2023-03-26T08:04:27.976Z,243.58
2023-03-26T08:08:27.825Z,244.16
2023-03-26T08:12:27.836Z,243.65
2023-03-26T08:16:27.911Z,244.56
2023-03-26T08:20:28.433Z,244.52
2023-03-26T08:24:28.224Z,243.74
2023-03-26T08:28:27.899Z,243.23
2023-03-26T08:32:27.965Z,244.35
2023-03-26T08:36:27.933Z,245.19
2023-03-26T08:40:28.115Z,247.61
2023-03-26T08:44:28.749Z,246.72
2023-03-26T08:48:28.486Z,246.92
2023-03-26T08:52:28.659Z,246.13
2023-03-26T08:56:29.244Z,246.89
2023-03-26T09:00:28.772Z,243.65
2023-03-26T09:04:28.684Z,242.29
2023-03-26T09:08:30.095Z,246.26
2023-03-26T09:12:28.654Z,242.44
2023-03-26T09:16:28.655Z,239.91
2023-03-26T09:20:28.808Z,240.63
2023-03-26T09:24:28.554Z,244.41
2023-03-26T09:28:28.547Z,243.03
2023-03-26T09:32:28.993Z,242.96
2023-03-26T09:36:28.569Z,244.47
2023-03-26T09:40:28.544Z,241.94
2023-03-26T09:44:28.401Z,240.11
2023-03-26T09:48:28.379Z,243.46
2023-03-26T09:52:28.350Z,241.36
2023-03-26T09:56:28.770Z,242.95
2023-03-26T10:00:29.126Z,243.70
2023-03-26T10:04:28.455Z,244.22
2023-03-26T10:08:30.256Z,243.56
2023-03-26T10:12:28.436Z,241.30
2023-03-26T10:16:28.638Z,240.84
2023-03-26T10:20:28.741Z,239.06
2023-03-26T10:24:28.794Z,243.41
2023-03-26T10:28:28.281Z,241.47
2023-03-26T10:32:29.582Z,245.93
2023-03-26T10:36:28.252Z,243.54
2023-03-26T10:40:28.206Z,241.51
2023-03-26T10:44:28.702Z,243.77
2023-03-26T10:48:28.122Z,239.50
2023-03-26T10:52:28.101Z,241.47
2023-03-26T10:56:28.149Z,242.57
2023-03-26T11:00:28.515Z,236.03
2023-03-26T11:04:28.514Z,242.23
2023-03-26T11:08:31.688Z,243.25
2023-03-26T11:12:29.012Z,241.89
2023-03-26T11:16:28.683Z,237.93
2023-03-26T11:20:28.567Z,240.39
2023-03-26T11:24:28.770Z,240.65
2023-03-26T11:28:28.501Z,238.78
2023-03-26T11:32:28.771Z,239.74
2023-03-26T11:36:28.682Z,238.83
2023-03-26T11:40:28.502Z,239.43
2023-03-26T11:44:28.350Z,239.52
2023-03-26T11:48:28.408Z,239.49
2023-03-26T11:52:28.314Z,235.93
2023-03-26T11:56:28.669Z,235.39
2023-03-26T12:00:32.080Z,234.75
2023-03-26T12:04:31.355Z,235.64
2023-03-26T12:08:28.305Z,236.88
2023-03-26T12:12:28.665Z,237.86
2023-03-26T12:16:28.216Z,234.93
2023-03-26T12:20:28.216Z,238.02
2023-03-26T12:24:28.177Z,236.87
2023-03-26T12:28:28.573Z,236.64
2023-03-26T12:32:42.964Z,235.02
2023-03-26T12:36:29.079Z,237.03
2023-03-26T12:40:28.062Z,237.81
2023-03-26T12:44:47.105Z,236.46
2023-03-26T12:48:28.936Z,240.35
2023-03-26T12:52:27.926Z,241.01
2023-03-26T12:56:27.892Z,238.68
2023-03-26T13:00:28.588Z,237.76
2023-03-26T13:04:28.208Z,240.03
2023-03-26T13:08:28.371Z,239.83
2023-03-26T13:12:28.610Z,243.43
2023-03-26T13:16:28.828Z,237.66
2023-03-26T13:20:29.005Z,239.59
2023-03-26T13:24:29.211Z,240.38
2023-03-26T13:28:29.200Z,238.65
2023-03-26T13:32:29.198Z,240.32
2023-03-26T13:36:29.185Z,239.15
2023-03-26T13:40:29.088Z,239.98
2023-03-26T13:44:29.084Z,241.10
2023-03-26T13:48:29.009Z,241.07
2023-03-26T13:52:29.071Z,239.48
2023-03-26T13:56:28.907Z,241.64
2023-03-26T14:00:28.997Z,238.94
2023-03-26T14:04:29.167Z,239.47
2023-03-26T14:08:30.124Z,240.52
2023-03-26T14:12:29.014Z,242.02
2023-03-26T14:16:28.933Z,240.02
2023-03-26T14:20:28.816Z,239.23
2023-03-26T14:24:28.854Z,239.64
2023-03-26T14:28:28.785Z,238.73
2023-03-26T14:32:29.078Z,240.06
2023-03-26T14:36:29.339Z,240.68
2023-03-26T14:40:28.788Z,239.42
2023-03-26T14:44:28.613Z,240.53
2023-03-26T14:48:28.616Z,239.40
2023-03-26T14:52:28.856Z,239.30
2023-03-26T14:56:28.841Z,240.25
2023-03-26T15:00:28.793Z,239.33
2023-03-26T15:04:28.509Z,238.72
2023-03-26T15:08:33.288Z,238.68
2023-03-26T15:12:29.698Z,238.70
2023-03-26T15:16:28.454Z,236.71
2023-03-26T15:20:28.301Z,237.97
2023-03-26T15:24:28.656Z,238.15
2023-03-26T15:28:28.679Z,236.43
2023-03-26T15:32:28.720Z,237.59
2023-03-26T15:36:28.201Z,237.23
2023-03-26T15:40:28.193Z,237.16
2023-03-26T15:44:28.182Z,236.16
2023-03-26T15:48:28.207Z,236.14
2023-03-26T15:52:28.208Z,235.86
2023-03-26T15:56:28.587Z,235.44
2023-03-26T16:00:28.293Z,237.44
2023-03-26T16:04:28.352Z,236.57
2023-03-26T16:08:28.577Z,235.78
2023-03-26T16:12:28.363Z,236.19
2023-03-26T16:16:28.573Z,234.87
2023-03-26T16:20:28.421Z,237.27
2023-03-26T16:24:28.637Z,235.82
2023-03-26T16:28:28.633Z,237.93
2023-03-26T16:32:28.956Z,235.20
2023-03-26T16:36:29.078Z,235.26
2023-03-26T16:40:28.985Z,236.53
2023-03-26T16:44:29.006Z,236.26
2023-03-26T16:48:29.118Z,236.71
2023-03-26T16:52:29.246Z,236.16
2023-03-26T16:56:29.311Z,234.33
2023-03-26T17:00:29.503Z,235.84
2023-03-26T17:04:29.584Z,234.77
2023-03-26T17:08:35.553Z,233.15
2023-03-26T17:12:31.114Z,233.47
2023-03-26T17:16:29.686Z,233.96
2023-03-26T17:20:29.635Z,233.22
2023-03-26T17:24:29.592Z,233.28
2023-03-26T17:28:30.103Z,234.14
2023-03-26T17:32:29.987Z,234.36
2023-03-26T17:36:30.185Z,233.46
2023-03-26T17:40:30.309Z,234.62
2023-03-26T17:44:30.524Z,232.80
2023-03-26T17:48:30.659Z,234.77
2023-03-26T17:52:30.895Z,234.14
2023-03-26T17:56:31.081Z,234.02
2023-03-26T18:00:31.580Z,232.61
2023-03-26T18:04:31.791Z,232.69
2023-03-26T18:08:31.972Z,232.92
2023-03-26T18:12:31.940Z,232.20
2023-03-26T18:16:32.347Z,233.08
2023-03-26T18:20:32.349Z,234.04
2023-03-26T18:24:32.491Z,232.27
2023-03-26T18:28:32.383Z,234.62
2023-03-26T18:32:32.431Z,233.98
2023-03-26T18:36:32.333Z,234.37
2023-03-26T18:40:32.383Z,232.72
2023-03-26T18:44:32.472Z,232.69
2023-03-26T18:48:32.229Z,233.99
2023-03-26T18:52:32.611Z,233.84
2023-03-26T18:56:32.330Z,231.72
2023-03-26T19:00:32.139Z,233.31
2023-03-26T19:04:32.055Z,234.07
2023-03-26T19:08:32.249Z,234.32
2023-03-26T19:12:32.759Z,235.76
2023-03-26T19:16:32.959Z,233.29
2023-03-26T19:20:32.503Z,231.54
2023-03-26T19:24:32.422Z,231.51
2023-03-26T19:28:32.594Z,232.52
2023-03-26T19:32:32.506Z,235.05
2023-03-26T19:36:32.334Z,235.30
2023-03-26T19:40:32.239Z,232.47
2023-03-26T19:44:32.281Z,236.04
2023-03-26T19:48:45.292Z,235.08
2023-03-26T19:52:33.119Z,235.27
2023-03-26T19:56:32.403Z,233.77
2023-03-26T20:00:32.311Z,234.18
2023-03-26T20:04:32.143Z,233.33
2023-03-26T20:08:32.450Z,233.18
2023-03-26T20:12:32.269Z,236.39
2023-03-26T20:16:32.283Z,233.08
2023-03-26T20:20:32.484Z,235.87
2023-03-26T20:24:32.461Z,235.50
2023-03-26T20:28:38.721Z,235.30
2023-03-26T20:32:33.342Z,236.12
2023-03-26T20:36:34.309Z,234.19
2023-03-26T20:40:32.722Z,235.07
2023-03-26T20:44:32.478Z,233.10
2023-03-26T20:48:32.434Z,233.13
2023-03-26T20:52:32.489Z,233.80
2023-03-26T20:56:32.568Z,233.72
2023-03-26T21:00:32.614Z,235.42
2023-03-26T21:04:32.905Z,235.70
2023-03-26T21:08:32.604Z,232.86
2023-03-26T21:12:32.763Z,235.13
2023-03-26T21:16:33.050Z,235.06
2023-03-26T21:20:32.659Z,233.80
2023-03-26T21:24:32.746Z,232.13
2023-03-26T21:28:41.752Z,236.83
2023-03-26T21:32:33.648Z,234.91
2023-03-26T21:36:32.586Z,235.23
2023-03-26T21:40:32.444Z,236.05
2023-03-26T21:44:32.559Z,234.70
2023-03-26T21:48:32.376Z,236.28
2023-03-26T21:52:32.310Z,232.13
2023-03-26T21:56:32.357Z,234.30
2023-03-26T22:00:43.194Z,234.39
2023-03-26T22:04:33.244Z,235.31
2023-03-26T22:08:32.189Z,233.37
2023-03-26T22:12:33.862Z,234.78
2023-03-26T22:16:32.148Z,235.46
2023-03-26T22:20:32.101Z,233.27
2023-03-26T22:24:32.359Z,235.10
2023-03-26T22:28:32.462Z,236.05
2023-03-26T22:32:32.871Z,235.03
2023-03-26T22:36:32.082Z,235.79
2023-03-26T22:40:32.160Z,235.10
2023-03-26T22:44:32.503Z,236.29
2023-03-26T22:48:32.761Z,233.98
2023-03-26T22:52:32.489Z,236.47
2023-03-26T22:56:33.094Z,232.13
2023-03-26T23:00:32.648Z,233.98
2023-03-26T23:04:32.679Z,233.05
2023-03-26T23:08:32.703Z,234.71
2023-03-26T23:12:32.738Z,233.76
2023-03-26T23:16:32.960Z,236.16
2023-03-26T23:20:32.992Z,234.78
2023-03-26T23:24:33.019Z,236.22
2023-03-26T23:28:33.084Z,234.60
2023-03-26T23:32:33.281Z,233.66
2023-03-26T23:36:33.403Z,235.58
2023-03-26T23:40:33.426Z,233.32
2023-03-26T23:44:33.460Z,236.05
2023-03-26T23:48:33.619Z,234.37
2023-03-26T23:52:33.721Z,232.33
2023-03-26T23:56:33.714Z,231.83
